sensor_id;sensor_type;location;lat;lon;timestamp;P1;durP1;ratioP1;P2;durP2;ratioP2
75937;SDS011;64615;32.062;34.834;2022-11-20T00:13:12;9.18;;;4.60;;
75937;SDS011;64615;32.062;34.834;2022-11-20T00:15:39;11.77;;;4.80;;
75937;SDS011;64615;32.062;34.834;2022-11-20T00:18:04;10.15;;;4.50;;
75937;SDS011;64615;32.062;34.834;2022-11-20T00:20:30;11.80;;;5.10;;
75937;SDS011;64615;32.062;34.834;2022-11-20T00:22:55;10.20;;;4.90;;
75937;SDS011;64615;32.062;34.834;2022-11-20T00:25:21;9.20;;;4.60;;
75937;SDS011;64615;32.062;34.834;2022-11-20T00:27:46;9.73;;;4.55;;
75937;SDS011;64615;32.062;34.834;2022-11-20T00:30:12;9.35;;;4.72;;
75937;SDS011;64615;32.062;34.834;2022-11-20T00:32:38;10.77;;;4.82;;
75937;SDS011;64615;32.062;34.834;2022-11-20T00:35:04;9.70;;;4.40;;
75937;SDS011;64615;32.062;34.834;2022-11-20T00:37:30;8.05;;;4.93;;
75937;SDS011;64615;32.062;34.834;2022-11-20T00:39:56;10.48;;;4.53;;
75937;SDS011;64615;32.062;34.834;2022-11-20T00:42:21;10.85;;;4.65;;
75937;SDS011;64615;32.062;34.834;2022-11-20T00:44:47;9.18;;;4.80;;
75937;SDS011;64615;32.062;34.834;2022-11-20T00:47:12;8.32;;;4.25;;
75937;SDS011;64615;32.062;34.834;2022-11-20T00:49:38;12.18;;;4.93;;
75937;SDS011;64615;32.062;34.834;2022-11-20T00:52:04;9.52;;;5.03;;
75937;SDS011;64615;32.062;34.834;2022-11-20T00:54:30;8.35;;;4.32;;
75937;SDS011;64615;32.062;34.834;2022-11-20T00:56:55;9.90;;;4.80;;
75937;SDS011;64615;32.062;34.834;2022-11-20T01:42:47;7.30;;;3.65;;
75937;SDS011;64615;32.062;34.834;2022-11-20T01:48:33;6.85;;;3.90;;
75937;SDS011;64615;32.062;34.834;2022-11-20T01:51:04;6.60;;;3.38;;
75937;SDS011;64615;32.062;34.834;2022-11-20T01:53:38;8.05;;;3.47;;
75937;SDS011;64615;32.062;34.834;2022-11-20T01:56:05;7.78;;;3.50;;
75937;SDS011;64615;32.062;34.834;2022-11-20T01:58:35;5.82;;;2.97;;
75937;SDS011;64615;32.062;34.834;2022-11-20T02:01:04;6.68;;;3.40;;
75937;SDS011;64615;32.062;34.834;2022-11-20T02:03:30;7.10;;;3.72;;
75937;SDS011;64615;32.062;34.834;2022-11-20T02:41:48;8.35;;;3.50;;
75937;SDS011;64615;32.062;34.834;2022-11-20T02:44:14;6.60;;;3.63;;
75937;SDS011;64615;32.062;34.834;2022-11-20T02:46:39;7.10;;;3.55;;
75937;SDS011;64615;32.062;34.834;2022-11-20T02:49:05;8.00;;;3.60;;
75937;SDS011;64615;32.062;34.834;2022-11-20T02:51:31;6.88;;;3.40;;
75937;SDS011;64615;32.062;34.834;2022-11-20T02:53:57;5.55;;;3.08;;
75937;SDS011;64615;32.062;34.834;2022-11-20T02:56:23;6.60;;;3.60;;
75937;SDS011;64615;32.062;34.834;2022-11-20T02:58:49;9.73;;;3.45;;
75937;SDS011;64615;32.062;34.834;2022-11-20T03:01:15;7.55;;;3.30;;
75937;SDS011;64615;32.062;34.834;2022-11-20T03:03:40;8.95;;;3.25;;
75937;SDS011;64615;32.062;34.834;2022-11-20T03:06:06;12.07;;;3.42;;
75937;SDS011;64615;32.062;34.834;2022-11-20T03:08:32;8.55;;;3.42;;
75937;SDS011;64615;32.062;34.834;2022-11-20T03:11:02;9.57;;;3.80;;
75937;SDS011;64615;32.062;34.834;2022-11-20T03:13:30;11.50;;;3.60;;
75937;SDS011;64615;32.062;34.834;2022-11-20T03:15:55;21.20;;;4.18;;
75937;SDS011;64615;32.062;34.834;2022-11-20T03:18:21;12.57;;;3.80;;
75937;SDS011;64615;32.062;34.834;2022-11-20T03:20:46;18.67;;;3.95;;
75937;SDS011;64615;32.062;34.834;2022-11-20T03:23:12;13.68;;;4.03;;
75937;SDS011;64615;32.062;34.834;2022-11-20T03:25:38;11.32;;;3.70;;
75937;SDS011;64615;32.062;34.834;2022-11-20T03:28:03;15.75;;;3.95;;
75937;SDS011;64615;32.062;34.834;2022-11-20T03:30:29;17.00;;;4.18;;
75937;SDS011;64615;32.062;34.834;2022-11-20T03:32:55;12.02;;;4.00;;
75937;SDS011;64615;32.062;34.834;2022-11-20T03:35:20;13.55;;;4.28;;
75937;SDS011;64615;32.062;34.834;2022-11-20T03:37:46;9.70;;;3.42;;
75937;SDS011;64615;32.062;34.834;2022-11-20T04:30:54;17.02;;;5.45;;
75937;SDS011;64615;32.062;34.834;2022-11-20T04:33:30;14.18;;;4.50;;
75937;SDS011;64615;32.062;34.834;2022-11-20T04:35:59;14.88;;;4.65;;
75937;SDS011;64615;32.062;34.834;2022-11-20T04:38:27;22.58;;;4.55;;
75937;SDS011;64615;32.062;34.834;2022-11-20T04:40:55;10.82;;;4.68;;
75937;SDS011;64615;32.062;34.834;2022-11-20T04:43:22;16.83;;;5.03;;
75937;SDS011;64615;32.062;34.834;2022-11-20T04:45:51;20.35;;;4.43;;
75937;SDS011;64615;32.062;34.834;2022-11-20T04:48:18;13.48;;;4.63;;
75937;SDS011;64615;32.062;34.834;2022-11-20T04:50:43;14.10;;;4.78;;
75937;SDS011;64615;32.062;34.834;2022-11-20T04:53:09;13.48;;;4.32;;
75937;SDS011;64615;32.062;34.834;2022-11-20T04:55:35;14.82;;;4.47;;
75937;SDS011;64615;32.062;34.834;2022-11-20T05:19:16;14.77;;;5.00;;
75937;SDS011;64615;32.062;34.834;2022-11-20T05:21:42;18.08;;;4.55;;
75937;SDS011;64615;32.062;34.834;2022-11-20T05:24:08;18.55;;;4.53;;
75937;SDS011;64615;32.062;34.834;2022-11-20T05:26:33;20.17;;;5.68;;
75937;SDS011;64615;32.062;34.834;2022-11-20T05:28:59;23.00;;;4.82;;
75937;SDS011;64615;32.062;34.834;2022-11-20T05:31:24;14.80;;;4.68;;
75937;SDS011;64615;32.062;34.834;2022-11-20T05:33:50;15.63;;;4.20;;
75937;SDS011;64615;32.062;34.834;2022-11-20T05:36:16;16.65;;;4.78;;
75937;SDS011;64615;32.062;34.834;2022-11-20T05:38:42;16.52;;;4.88;;
75937;SDS011;64615;32.062;34.834;2022-11-20T05:41:10;15.32;;;5.05;;
75937;SDS011;64615;32.062;34.834;2022-11-20T05:43:38;24.85;;;5.07;;
75937;SDS011;64615;32.062;34.834;2022-11-20T05:46:06;15.77;;;5.00;;
75937;SDS011;64615;32.062;34.834;2022-11-20T05:48:32;14.90;;;5.70;;
75937;SDS011;64615;32.062;34.834;2022-11-20T05:50:59;19.70;;;6.53;;
75937;SDS011;64615;32.062;34.834;2022-11-20T05:53:26;22.75;;;5.88;;
75937;SDS011;64615;32.062;34.834;2022-11-20T05:55:58;23.00;;;6.25;;
75937;SDS011;64615;32.062;34.834;2022-11-20T05:58:24;28.73;;;6.65;;
75937;SDS011;64615;32.062;34.834;2022-11-20T06:00:50;23.27;;;6.93;;
75937;SDS011;64615;32.062;34.834;2022-11-20T06:03:16;22.38;;;6.90;;
75937;SDS011;64615;32.062;34.834;2022-11-20T06:05:41;25.73;;;6.68;;
75937;SDS011;64615;32.062;34.834;2022-11-20T06:08:07;27.40;;;6.85;;
75937;SDS011;64615;32.062;34.834;2022-11-20T06:10:57;23.63;;;6.25;;
75937;SDS011;64615;32.062;34.834;2022-11-20T06:50:39;20.95;;;6.68;;
75937;SDS011;64615;32.062;34.834;2022-11-20T06:53:04;25.70;;;6.57;;
75937;SDS011;64615;32.062;34.834;2022-11-20T06:55:30;30.85;;;7.07;;
75937;SDS011;64615;32.062;34.834;2022-11-20T06:57:56;20.48;;;6.10;;
75937;SDS011;64615;32.062;34.834;2022-11-20T07:00:22;28.75;;;7.38;;
75937;SDS011;64615;32.062;34.834;2022-11-20T07:02:48;34.28;;;6.10;;
75937;SDS011;64615;32.062;34.834;2022-11-20T07:05:15;27.75;;;6.05;;
75937;SDS011;64615;32.062;34.834;2022-11-20T07:07:41;29.20;;;5.90;;
75937;SDS011;64615;32.062;34.834;2022-11-20T07:10:07;44.30;;;6.25;;
75937;SDS011;64615;32.062;34.834;2022-11-20T07:12:33;35.75;;;5.97;;
75937;SDS011;64615;32.062;34.834;2022-11-20T07:14:59;29.00;;;5.50;;
75937;SDS011;64615;32.062;34.834;2022-11-20T07:17:24;27.80;;;6.00;;
75937;SDS011;64615;32.062;34.834;2022-11-20T07:19:50;19.10;;;4.88;;
75937;SDS011;64615;32.062;34.834;2022-11-20T07:22:16;29.42;;;5.55;;
75937;SDS011;64615;32.062;34.834;2022-11-20T07:24:41;28.65;;;4.03;;
75937;SDS011;64615;32.062;34.834;2022-11-20T07:27:07;31.00;;;4.10;;
75937;SDS011;64615;32.062;34.834;2022-11-20T07:29:32;94.78;;;5.57;;
75937;SDS011;64615;32.062;34.834;2022-11-20T07:31:58;26.10;;;4.20;;
75937;SDS011;64615;32.062;34.834;2022-11-20T07:34:24;14.68;;;3.42;;
75937;SDS011;64615;32.062;34.834;2022-11-20T07:36:50;30.60;;;4.22;;
75937;SDS011;64615;32.062;34.834;2022-11-20T07:39:15;27.00;;;4.63;;
75937;SDS011;64615;32.062;34.834;2022-11-20T07:41:41;20.63;;;3.63;;
75937;SDS011;64615;32.062;34.834;2022-11-20T07:44:06;12.98;;;3.15;;
75937;SDS011;64615;32.062;34.834;2022-11-20T07:46:32;28.35;;;3.97;;
75937;SDS011;64615;32.062;34.834;2022-11-20T07:48:58;18.23;;;3.65;;
75937;SDS011;64615;32.062;34.834;2022-11-20T07:51:23;20.52;;;3.63;;
75937;SDS011;64615;32.062;34.834;2022-11-20T07:53:53;21.08;;;3.72;;
75937;SDS011;64615;32.062;34.834;2022-11-20T07:56:19;22.75;;;3.63;;
75937;SDS011;64615;32.062;34.834;2022-11-20T07:58:45;24.73;;;3.67;;
75937;SDS011;64615;32.062;34.834;2022-11-20T08:01:11;16.90;;;3.08;;
75937;SDS011;64615;32.062;34.834;2022-11-20T08:03:36;18.35;;;2.88;;
75937;SDS011;64615;32.062;34.834;2022-11-20T08:06:05;12.55;;;3.50;;
75937;SDS011;64615;32.062;34.834;2022-11-20T08:08:31;18.13;;;3.28;;
75937;SDS011;64615;32.062;34.834;2022-11-20T08:10:57;19.10;;;3.13;;
75937;SDS011;64615;32.062;34.834;2022-11-20T08:13:41;17.55;;;3.10;;
75937;SDS011;64615;32.062;34.834;2022-11-20T08:16:26;12.50;;;2.90;;
75937;SDS011;64615;32.062;34.834;2022-11-20T08:18:51;13.77;;;3.03;;
75937;SDS011;64615;32.062;34.834;2022-11-20T08:21:17;13.35;;;2.80;;
75937;SDS011;64615;32.062;34.834;2022-11-20T08:23:43;14.75;;;2.95;;
75937;SDS011;64615;32.062;34.834;2022-11-20T09:39:24;19.48;;;3.45;;
75937;SDS011;64615;32.062;34.834;2022-11-20T09:42:04;12.77;;;3.40;;
75937;SDS011;64615;32.062;34.834;2022-11-20T09:48:03;12.77;;;3.78;;
75937;SDS011;64615;32.062;34.834;2022-11-20T09:58:25;16.83;;;3.88;;
75937;SDS011;64615;32.062;34.834;2022-11-20T11:03:27;22.33;;;3.92;;
75937;SDS011;64615;32.062;34.834;2022-11-20T11:06:10;32.90;;;4.63;;
75937;SDS011;64615;32.062;34.834;2022-11-20T11:08:58;37.47;;;5.20;;
75937;SDS011;64615;32.062;34.834;2022-11-20T11:30:01;20.40;;;4.30;;
75937;SDS011;64615;32.062;34.834;2022-11-20T11:33:06;33.45;;;4.40;;
75937;SDS011;64615;32.062;34.834;2022-11-20T11:36:04;33.17;;;5.22;;
75937;SDS011;64615;32.062;34.834;2022-11-20T11:39:14;38.65;;;4.95;;
75937;SDS011;64615;32.062;34.834;2022-11-20T11:42:10;34.97;;;4.88;;
75937;SDS011;64615;32.062;34.834;2022-11-20T11:45:07;24.95;;;4.82;;
75937;SDS011;64615;32.062;34.834;2022-11-20T11:48:04;33.42;;;4.60;;
75937;SDS011;64615;32.062;34.834;2022-11-20T11:50:34;30.33;;;4.95;;
75937;SDS011;64615;32.062;34.834;2022-11-20T12:00:54;42.03;;;4.82;;
75937;SDS011;64615;32.062;34.834;2022-11-20T12:03:42;25.23;;;4.95;;
75937;SDS011;64615;32.062;34.834;2022-11-20T12:06:14;26.55;;;3.90;;
75937;SDS011;64615;32.062;34.834;2022-11-20T12:08:50;23.83;;;4.65;;
75937;SDS011;64615;32.062;34.834;2022-11-20T12:16:49;24.08;;;4.45;;
75937;SDS011;64615;32.062;34.834;2022-11-20T12:19:17;18.77;;;4.43;;
75937;SDS011;64615;32.062;34.834;2022-11-20T12:22:01;25.02;;;4.07;;
75937;SDS011;64615;32.062;34.834;2022-11-20T12:30:29;19.05;;;4.05;;
75937;SDS011;64615;32.062;34.834;2022-11-20T12:36:23;24.85;;;4.82;;
75937;SDS011;64615;32.062;34.834;2022-11-20T12:51:05;27.73;;;4.55;;
75937;SDS011;64615;32.062;34.834;2022-11-20T13:01:40;14.40;;;3.70;;
75937;SDS011;64615;32.062;34.834;2022-11-20T13:07:08;19.27;;;3.92;;
75937;SDS011;64615;32.062;34.834;2022-11-20T13:09:39;25.13;;;4.45;;
75937;SDS011;64615;32.062;34.834;2022-11-20T13:18:14;18.15;;;3.92;;
75937;SDS011;64615;32.062;34.834;2022-11-20T13:20:24;19.90;;;4.20;;
75937;SDS011;64615;32.062;34.834;2022-11-20T13:22:54;23.67;;;4.05;;
75937;SDS011;64615;32.062;34.834;2022-11-20T13:25:25;21.02;;;4.82;;
75937;SDS011;64615;32.062;34.834;2022-11-20T13:27:56;21.02;;;3.95;;
